createdAt,value
2023-04-30T00:00:08.270Z,9.29
2023-04-30T00:01:08.214Z,9.22
2023-04-30T00:02:08.256Z,9.14
2023-04-30T00:03:08.317Z,9.21
2023-04-30T00:04:08.227Z,9.19
2023-04-30T00:05:08.154Z,9.16
2023-04-30T00:06:08.225Z,9.22
2023-04-30T00:07:08.137Z,9.16
2023-04-30T00:08:08.126Z,9.16
2023-04-30T00:09:08.143Z,9.13
2023-04-30T00:10:08.102Z,9.06
2023-04-30T00:11:08.118Z,9.18
2023-04-30T00:12:08.091Z,9.02
2023-04-30T00:13:08.072Z,9.06
2023-04-30T00:14:08.076Z,9.03
2023-04-30T00:15:08.057Z,9.00
2023-04-30T00:16:08.078Z,9.02
2023-04-30T00:17:08.051Z,8.95
2023-04-30T00:18:08.929Z,9.06
2023-04-30T00:19:08.007Z,8.94
2023-04-30T00:20:08.074Z,8.89
2023-04-30T00:21:08.000Z,8.89
2023-04-30T00:22:07.980Z,8.95
2023-04-30T00:23:07.979Z,8.99
2023-04-30T00:24:07.980Z,8.88
2023-04-30T00:25:07.967Z,9.00
2023-04-30T00:26:07.925Z,9.03
2023-04-30T00:27:08.826Z,8.89
2023-04-30T00:28:07.905Z,8.91
2023-04-30T00:29:07.890Z,8.87
2023-04-30T00:30:07.885Z,8.94
2023-04-30T00:31:07.873Z,8.99
2023-04-30T00:32:07.915Z,8.95
2023-04-30T00:33:07.943Z,8.88
2023-04-30T00:34:07.834Z,8.84
2023-04-30T00:35:07.823Z,8.82
2023-04-30T00:36:07.821Z,8.82
2023-04-30T00:37:07.821Z,8.82
2023-04-30T00:38:07.795Z,8.85
2023-04-30T00:39:07.787Z,8.76
2023-04-30T00:40:07.786Z,8.79
2023-04-30T00:41:07.780Z,8.85
2023-04-30T00:42:07.768Z,8.73
2023-04-30T00:43:07.736Z,8.84
2023-04-30T00:44:07.740Z,8.69
2023-04-30T00:45:07.725Z,8.69
2023-04-30T00:46:07.899Z,8.73
2023-04-30T00:47:07.711Z,8.70
2023-04-30T00:48:07.788Z,8.70
2023-04-30T00:49:07.672Z,8.66
2023-04-30T00:50:07.663Z,8.60
2023-04-30T00:51:07.679Z,8.53
2023-04-30T00:52:07.634Z,8.69
2023-04-30T00:53:07.684Z,8.55
2023-04-30T00:54:07.625Z,8.53
2023-04-30T00:55:07.610Z,8.58
2023-04-30T00:56:07.628Z,8.55
2023-04-30T00:57:07.613Z,8.52
2023-04-30T00:58:07.613Z,8.53
2023-04-30T00:59:07.560Z,8.51
2023-04-30T01:00:07.552Z,8.51
2023-04-30T01:01:07.595Z,8.51
2023-04-30T01:02:07.534Z,8.51
2023-04-30T01:03:07.652Z,8.51
2023-04-30T01:04:07.510Z,8.53
2023-04-30T01:05:07.520Z,8.60
2023-04-30T01:06:07.551Z,8.52
2023-04-30T01:07:07.465Z,8.42
2023-04-30T01:08:07.453Z,8.42
2023-04-30T01:09:07.474Z,8.44
2023-04-30T01:10:08.323Z,8.44
2023-04-30T01:11:07.413Z,8.44
2023-04-30T01:12:07.419Z,8.44
2023-04-30T01:13:07.422Z,8.45
2023-04-30T01:14:07.392Z,8.42
2023-04-30T01:15:07.375Z,8.46
2023-04-30T01:16:07.421Z,8.37
2023-04-30T01:17:07.362Z,8.42
2023-04-30T01:18:07.443Z,8.34
2023-04-30T01:19:07.410Z,8.34
2023-04-30T01:20:07.329Z,8.44
2023-04-30T01:21:07.307Z,8.37
2023-04-30T01:22:07.417Z,8.37
2023-04-30T01:23:07.310Z,8.36
2023-04-30T01:24:07.273Z,8.36
2023-04-30T01:25:07.270Z,8.24
2023-04-30T01:26:07.269Z,8.31
2023-04-30T01:27:07.257Z,8.37
2023-04-30T01:28:07.255Z,8.28
2023-04-30T01:29:07.241Z,8.33
2023-04-30T01:30:07.206Z,8.30
2023-04-30T01:31:07.224Z,8.37
2023-04-30T01:32:07.204Z,8.34
2023-04-30T01:33:07.205Z,8.34
2023-04-30T01:34:07.167Z,8.28
2023-04-30T01:35:07.165Z,8.30
2023-04-30T01:36:07.142Z,8.33
2023-04-30T01:37:07.149Z,8.30
2023-04-30T01:38:07.137Z,8.28
2023-04-30T01:39:07.107Z,8.34
2023-04-30T01:40:07.095Z,8.27
2023-04-30T01:41:07.092Z,8.28
2023-04-30T01:42:07.087Z,8.31
2023-04-30T01:43:07.081Z,8.28
2023-04-30T01:44:07.060Z,8.30
2023-04-30T01:45:07.056Z,8.26
2023-04-30T01:46:07.038Z,8.26
2023-04-30T01:47:07.047Z,8.18
2023-04-30T01:48:07.151Z,8.20
2023-04-30T01:49:06.997Z,8.19
2023-04-30T01:50:06.984Z,8.13
2023-04-30T01:51:06.976Z,8.16
2023-04-30T01:52:06.962Z,8.15
2023-04-30T01:53:06.967Z,8.18
2023-04-30T01:54:06.942Z,8.13
2023-04-30T01:55:06.945Z,8.18
2023-04-30T01:56:06.941Z,8.18
2023-04-30T01:57:06.931Z,8.16
2023-04-30T01:58:06.909Z,8.12
2023-04-30T01:59:06.889Z,8.05
2023-04-30T02:00:06.894Z,8.06
2023-04-30T02:01:06.929Z,8.12
2023-04-30T02:02:06.883Z,8.10
2023-04-30T02:03:06.990Z,8.09
2023-04-30T02:04:06.912Z,8.03
2023-04-30T02:05:07.353Z,7.97
2023-04-30T02:06:06.854Z,7.98
2023-04-30T02:07:06.825Z,7.97
2023-04-30T02:08:06.811Z,8.01
2023-04-30T02:09:06.798Z,7.98
2023-04-30T02:10:06.782Z,7.97
2023-04-30T02:11:06.762Z,8.06
2023-04-30T02:12:06.743Z,8.00
2023-04-30T02:13:06.729Z,8.01
2023-04-30T02:14:06.767Z,8.03
2023-04-30T02:15:06.714Z,8.06
2023-04-30T02:16:06.732Z,7.95
2023-04-30T02:17:06.750Z,8.06
2023-04-30T02:18:06.723Z,7.95
2023-04-30T02:19:06.718Z,7.95
2023-04-30T02:20:06.646Z,7.97
2023-04-30T02:21:06.635Z,7.90
2023-04-30T02:22:06.637Z,7.87
2023-04-30T02:23:06.652Z,7.94
2023-04-30T02:24:06.603Z,7.90
2023-04-30T02:25:06.592Z,7.94
2023-04-30T02:26:06.582Z,7.90
2023-04-30T02:27:06.583Z,7.93
2023-04-30T02:28:06.580Z,7.87
2023-04-30T02:29:06.544Z,7.91
2023-04-30T02:30:06.536Z,7.83
2023-04-30T02:31:06.526Z,7.90
2023-04-30T02:32:06.517Z,7.85
2023-04-30T02:33:06.589Z,7.91
2023-04-30T02:34:06.504Z,7.80
2023-04-30T02:35:06.482Z,7.79
2023-04-30T02:36:06.491Z,7.75
2023-04-30T02:37:06.492Z,7.82
2023-04-30T02:38:06.446Z,7.85
2023-04-30T02:39:06.439Z,7.87
2023-04-30T02:40:06.427Z,7.88
2023-04-30T02:41:06.430Z,7.85
2023-04-30T02:42:06.416Z,7.85
2023-04-30T02:43:06.428Z,7.82
2023-04-30T02:44:06.376Z,7.83
2023-04-30T02:45:06.380Z,7.69
2023-04-30T02:46:06.413Z,7.73
2023-04-30T02:47:06.344Z,7.70
2023-04-30T02:48:06.568Z,7.69
2023-04-30T02:49:06.347Z,7.70
2023-04-30T02:50:06.335Z,7.63
2023-04-30T02:51:06.320Z,7.61
2023-04-30T02:52:06.298Z,7.61
2023-04-30T02:53:06.274Z,7.60
2023-04-30T02:54:06.264Z,7.60
2023-04-30T02:55:06.271Z,7.57
2023-04-30T02:56:06.243Z,7.53
2023-04-30T02:57:06.242Z,7.58
2023-04-30T02:58:06.217Z,7.53
2023-04-30T02:59:06.214Z,7.53
2023-04-30T03:00:06.868Z,7.54
2023-04-30T03:01:06.223Z,7.56
2023-04-30T03:02:06.217Z,7.54
2023-04-30T03:03:06.285Z,7.56
2023-04-30T03:04:06.179Z,7.54
2023-04-30T03:05:06.190Z,7.51
2023-04-30T03:06:06.170Z,7.53
2023-04-30T03:07:06.132Z,7.45
2023-04-30T03:08:06.109Z,7.47
2023-04-30T03:09:06.106Z,7.43
2023-04-30T03:10:06.103Z,7.47
2023-04-30T03:11:06.076Z,7.40
2023-04-30T03:12:06.062Z,7.43
2023-04-30T03:13:06.057Z,7.40
2023-04-30T03:14:06.050Z,7.32
2023-04-30T03:15:06.047Z,7.32
2023-04-30T03:16:06.049Z,7.35
2023-04-30T03:17:06.042Z,7.40
2023-04-30T03:18:06.056Z,7.39
2023-04-30T03:19:06.029Z,7.42
2023-04-30T03:20:06.006Z,7.38
2023-04-30T03:21:05.990Z,7.35
2023-04-30T03:22:05.958Z,7.35
2023-04-30T03:23:05.945Z,7.39
2023-04-30T03:24:05.953Z,7.39
2023-04-30T03:25:05.939Z,7.38
2023-04-30T03:26:05.920Z,7.36
2023-04-30T03:27:05.919Z,7.35
2023-04-30T03:28:05.909Z,7.42
2023-04-30T03:29:05.989Z,7.36
2023-04-30T03:30:05.884Z,7.35
2023-04-30T03:31:05.928Z,7.35
2023-04-30T03:32:05.867Z,7.38
2023-04-30T03:33:05.921Z,7.33
2023-04-30T03:34:05.827Z,7.39
2023-04-30T03:35:05.823Z,7.39
2023-04-30T03:36:05.807Z,7.35
2023-04-30T03:37:05.828Z,7.36
2023-04-30T03:38:05.797Z,7.36
2023-04-30T03:39:05.777Z,7.24
2023-04-30T03:40:05.762Z,7.36
2023-04-30T03:41:05.798Z,7.33
2023-04-30T03:42:05.776Z,7.32
2023-04-30T03:43:05.764Z,7.33
2023-04-30T03:44:05.713Z,7.38
2023-04-30T03:45:05.719Z,7.29
2023-04-30T03:46:05.771Z,7.28
2023-04-30T03:47:05.682Z,7.29
2023-04-30T03:48:05.732Z,7.24
2023-04-30T03:49:05.668Z,7.21
2023-04-30T03:50:05.706Z,7.29
2023-04-30T03:51:05.638Z,7.25
2023-04-30T03:52:05.648Z,7.31
2023-04-30T03:53:05.671Z,7.36
2023-04-30T03:54:05.624Z,7.31
2023-04-30T03:55:05.595Z,7.28
2023-04-30T03:56:05.583Z,7.28
2023-04-30T03:57:05.647Z,7.24
2023-04-30T03:58:05.607Z,7.23
2023-04-30T03:59:05.556Z,7.29
2023-04-30T04:00:05.549Z,7.38
2023-04-30T04:01:05.525Z,7.25
2023-04-30T04:02:06.390Z,7.31
2023-04-30T04:03:05.636Z,7.31
2023-04-30T04:04:05.584Z,7.32
2023-04-30T04:05:05.487Z,7.29
2023-04-30T04:06:05.596Z,7.28
2023-04-30T04:07:05.459Z,7.28
2023-04-30T04:08:05.464Z,7.28
2023-04-30T04:09:05.489Z,7.28
2023-04-30T04:10:05.426Z,7.29
2023-04-30T04:11:05.424Z,7.35
2023-04-30T04:12:05.477Z,7.29
2023-04-30T04:13:05.417Z,7.33
2023-04-30T04:14:05.892Z,7.20
2023-04-30T04:15:05.398Z,7.28
2023-04-30T04:16:05.431Z,7.29
2023-04-30T04:17:05.371Z,7.25
2023-04-30T04:18:05.354Z,7.28
2023-04-30T04:19:05.349Z,7.28
2023-04-30T04:20:05.316Z,7.33
2023-04-30T04:21:05.315Z,7.23
2023-04-30T04:22:05.293Z,7.29
2023-04-30T04:23:05.348Z,7.36
2023-04-30T04:24:05.272Z,7.28
2023-04-30T04:25:05.295Z,7.32
2023-04-30T04:26:05.270Z,7.35
2023-04-30T04:27:05.242Z,7.42
2023-04-30T04:28:05.262Z,7.36
2023-04-30T04:29:05.220Z,7.36
2023-04-30T04:30:05.216Z,7.39
2023-04-30T04:31:05.198Z,7.36
2023-04-30T04:32:05.230Z,7.35
2023-04-30T04:33:05.248Z,7.31
2023-04-30T04:34:05.159Z,7.33
2023-04-30T04:35:05.151Z,7.36
2023-04-30T04:36:05.187Z,7.36
2023-04-30T04:37:05.171Z,7.36
2023-04-30T04:38:05.370Z,7.36
2023-04-30T04:39:05.127Z,7.38
2023-04-30T04:40:05.129Z,7.39
2023-04-30T04:41:05.119Z,7.33
2023-04-30T04:42:05.224Z,7.42
2023-04-30T04:43:05.061Z,7.36
2023-04-30T04:44:05.049Z,7.40
2023-04-30T04:45:05.034Z,7.38
2023-04-30T04:46:05.065Z,7.43
2023-04-30T04:47:05.016Z,7.35
2023-04-30T04:48:05.224Z,7.40
2023-04-30T04:49:05.020Z,7.39
2023-04-30T04:50:05.174Z,7.45
2023-04-30T04:51:04.994Z,7.39
2023-04-30T04:52:04.967Z,7.42
2023-04-30T04:53:04.948Z,7.42
2023-04-30T04:54:04.960Z,7.42
2023-04-30T04:55:04.954Z,7.43
2023-04-30T04:56:04.945Z,7.43
2023-04-30T04:57:04.935Z,7.47
2023-04-30T04:58:04.888Z,7.47
2023-04-30T04:59:04.898Z,7.51
2023-04-30T05:00:04.867Z,7.54
2023-04-30T05:01:04.864Z,7.56
2023-04-30T05:02:04.942Z,7.54
2023-04-30T05:03:04.911Z,7.53
2023-04-30T05:04:05.003Z,7.57
2023-04-30T05:05:04.829Z,7.57
2023-04-30T05:06:04.888Z,7.54
2023-04-30T05:07:04.801Z,7.54
2023-04-30T05:08:04.778Z,7.56
2023-04-30T05:09:04.770Z,7.56
2023-04-30T05:10:04.783Z,7.53
2023-04-30T05:11:04.749Z,7.67
2023-04-30T05:12:04.756Z,7.67
2023-04-30T05:13:04.742Z,7.66
2023-04-30T05:14:04.713Z,7.60
2023-04-30T05:15:04.719Z,7.73
2023-04-30T05:16:04.789Z,7.67
2023-04-30T05:17:04.775Z,7.73
2023-04-30T05:18:04.720Z,7.75
2023-04-30T05:19:04.765Z,7.69
2023-04-30T05:20:04.658Z,7.60
2023-04-30T05:21:04.637Z,7.67
2023-04-30T05:22:04.623Z,7.69
2023-04-30T05:23:04.613Z,7.70
2023-04-30T05:24:04.635Z,7.70
2023-04-30T05:25:04.591Z,7.70
2023-04-30T05:26:04.586Z,7.75
2023-04-30T05:27:04.563Z,7.76
2023-04-30T05:28:04.556Z,7.85
2023-04-30T05:29:04.569Z,7.87
2023-04-30T05:30:04.566Z,7.80
2023-04-30T05:31:04.535Z,7.83
2023-04-30T05:32:04.554Z,7.85
2023-04-30T05:33:04.535Z,7.88
2023-04-30T05:34:04.496Z,7.83
2023-04-30T05:35:04.514Z,7.93
2023-04-30T05:36:05.383Z,7.87
2023-04-30T05:37:04.453Z,7.90
2023-04-30T05:38:04.474Z,7.95
2023-04-30T05:39:04.438Z,7.94
2023-04-30T05:40:04.443Z,7.95
2023-04-30T05:41:04.431Z,8.08
2023-04-30T05:42:04.403Z,8.13
2023-04-30T05:43:04.395Z,8.16
2023-04-30T05:44:04.381Z,8.20
2023-04-30T05:45:04.420Z,8.16
2023-04-30T05:46:04.410Z,8.19
2023-04-30T05:47:04.355Z,8.20
2023-04-30T05:48:04.360Z,8.18
2023-04-30T05:49:04.339Z,8.30
2023-04-30T05:50:04.345Z,8.36
2023-04-30T05:51:04.300Z,8.33
2023-04-30T05:52:04.286Z,8.46
2023-04-30T05:53:04.301Z,8.52
2023-04-30T05:54:04.293Z,8.63
2023-04-30T05:55:12.056Z,8.70
2023-04-30T05:56:04.247Z,8.81
2023-04-30T05:57:04.937Z,8.92
2023-04-30T05:58:04.226Z,8.97
2023-04-30T05:59:04.230Z,9.03
2023-04-30T06:00:04.224Z,9.13
2023-04-30T06:01:04.209Z,9.21
2023-04-30T06:02:04.329Z,9.23
2023-04-30T06:03:04.231Z,9.29
2023-04-30T06:04:04.176Z,9.39
2023-04-30T06:05:04.254Z,9.55
2023-04-30T06:06:04.171Z,9.65
2023-04-30T06:07:04.120Z,9.65
2023-04-30T06:08:04.118Z,9.69
2023-04-30T06:09:04.103Z,9.82
2023-04-30T06:10:04.115Z,10.07
2023-04-30T06:11:04.104Z,10.17
2023-04-30T06:12:04.084Z,10.26
2023-04-30T06:13:04.084Z,10.38
2023-04-30T06:14:04.060Z,10.44
2023-04-30T06:15:04.060Z,10.64
2023-04-30T06:16:04.093Z,10.71
2023-04-30T06:17:04.947Z,10.84
2023-04-30T06:18:04.032Z,10.99
2023-04-30T06:19:04.024Z,11.00
2023-04-30T06:20:03.982Z,11.11
2023-04-30T06:21:03.977Z,11.36
2023-04-30T06:22:03.961Z,11.47
2023-04-30T06:23:04.084Z,11.70
2023-04-30T06:24:03.966Z,11.99
2023-04-30T06:25:03.956Z,12.17
2023-04-30T06:26:04.064Z,12.35
2023-04-30T06:27:03.904Z,12.62
2023-04-30T06:28:03.891Z,12.93
2023-04-30T06:29:03.880Z,13.22
2023-04-30T06:30:03.885Z,13.41
2023-04-30T06:31:03.905Z,13.71
2023-04-30T06:32:04.292Z,14.04
2023-04-30T06:33:04.086Z,14.55
2023-04-30T06:34:03.837Z,14.92
2023-04-30T06:35:03.832Z,15.21
2023-04-30T06:36:03.801Z,15.55
2023-04-30T06:37:03.803Z,16.13
2023-04-30T06:38:03.848Z,16.35
2023-04-30T06:39:03.852Z,16.61
2023-04-30T06:40:03.780Z,17.02
2023-04-30T06:41:03.745Z,17.45
2023-04-30T06:42:03.737Z,17.71
2023-04-30T06:43:03.718Z,18.08
2023-04-30T06:44:03.748Z,18.50
2023-04-30T06:45:03.755Z,19.07
2023-04-30T06:46:03.724Z,19.55
2023-04-30T06:47:03.692Z,19.89
2023-04-30T06:48:03.707Z,20.29
2023-04-30T06:49:03.679Z,20.66
2023-04-30T06:50:03.703Z,20.96
2023-04-30T06:51:03.640Z,21.29
2023-04-30T06:52:03.633Z,21.54
2023-04-30T06:53:03.609Z,21.79
2023-04-30T06:54:03.599Z,22.23
2023-04-30T06:55:03.580Z,22.59
2023-04-30T06:56:03.590Z,22.78
2023-04-30T06:57:03.563Z,23.20
2023-04-30T06:58:03.555Z,23.41
2023-04-30T06:59:03.543Z,23.55
2023-04-30T07:00:03.550Z,23.65
2023-04-30T07:01:03.596Z,23.86
2023-04-30T07:02:03.512Z,24.03
2023-04-30T07:03:03.691Z,24.24
2023-04-30T07:04:03.484Z,24.33
2023-04-30T07:05:03.530Z,24.51
2023-04-30T07:06:03.507Z,24.99
2023-04-30T07:07:03.470Z,25.35
2023-04-30T07:08:03.436Z,25.83
2023-04-30T07:09:03.468Z,26.06
2023-04-30T07:10:03.420Z,26.31
2023-04-30T07:11:03.404Z,26.40
2023-04-30T07:12:03.395Z,26.40
2023-04-30T07:13:03.379Z,26.65
2023-04-30T07:14:03.405Z,26.92
2023-04-30T07:15:03.397Z,27.29
2023-04-30T07:16:03.369Z,27.51
2023-04-30T07:17:03.341Z,28.00
2023-04-30T07:18:03.384Z,28.39
2023-04-30T07:19:03.317Z,28.69
2023-04-30T07:20:03.334Z,29.17
2023-04-30T07:21:03.366Z,29.54
2023-04-30T07:22:03.287Z,29.94
2023-04-30T07:23:03.270Z,30.19
2023-04-30T07:24:03.276Z,30.32
2023-04-30T07:25:03.248Z,30.40
2023-04-30T07:26:03.236Z,30.62
2023-04-30T07:27:03.224Z,30.81
2023-04-30T07:28:03.946Z,30.85
2023-04-30T07:29:03.209Z,31.27
2023-04-30T07:30:03.198Z,31.51
2023-04-30T07:31:03.205Z,31.43
2023-04-30T07:32:03.374Z,31.42
2023-04-30T07:33:03.298Z,31.43
2023-04-30T07:34:03.160Z,31.65
2023-04-30T07:35:03.139Z,31.81
2023-04-30T07:36:03.149Z,31.80
2023-04-30T07:37:03.320Z,31.90
2023-04-30T07:38:03.118Z,31.87
2023-04-30T07:39:03.094Z,30.80
2023-04-30T07:40:03.145Z,30.80
2023-04-30T07:41:03.094Z,30.99
2023-04-30T07:42:03.065Z,30.90
2023-04-30T07:43:03.053Z,30.99
2023-04-30T07:44:03.041Z,31.20
2023-04-30T07:45:03.042Z,31.33
2023-04-30T07:46:03.049Z,31.46
2023-04-30T07:47:03.009Z,31.58
2023-04-30T07:48:03.105Z,31.84
2023-04-30T07:49:02.986Z,32.16
2023-04-30T07:50:02.980Z,32.07
2023-04-30T07:51:02.986Z,31.81
2023-04-30T07:52:02.952Z,31.87
2023-04-30T07:53:02.964Z,31.94
2023-04-30T07:54:02.948Z,31.25
2023-04-30T07:55:02.948Z,31.52
2023-04-30T07:56:02.912Z,31.84
2023-04-30T07:57:02.912Z,31.34
2023-04-30T07:58:02.960Z,30.43
2023-04-30T07:59:02.893Z,30.65
2023-04-30T08:00:02.891Z,31.33
2023-04-30T08:01:02.860Z,31.43
2023-04-30T08:02:02.890Z,31.12
2023-04-30T08:03:02.900Z,30.03
2023-04-30T08:04:02.925Z,29.61
2023-04-30T08:05:02.813Z,29.91
2023-04-30T08:06:02.909Z,30.25
2023-04-30T08:07:02.817Z,29.95
2023-04-30T08:08:02.791Z,30.35
2023-04-30T08:09:02.789Z,31.02
2023-04-30T08:10:02.782Z,31.20
2023-04-30T08:11:02.902Z,31.21
2023-04-30T08:12:02.753Z,31.40
2023-04-30T08:13:02.731Z,31.58
2023-04-30T08:14:02.722Z,31.84
2023-04-30T08:15:02.709Z,31.97
2023-04-30T08:16:02.734Z,32.08
2023-04-30T08:17:02.740Z,32.16
2023-04-30T08:18:02.800Z,32.43
2023-04-30T08:19:02.670Z,32.83
2023-04-30T08:20:02.661Z,33.11
2023-04-30T08:21:02.650Z,33.31
2023-04-30T08:22:02.656Z,33.08
2023-04-30T08:23:02.631Z,33.46
2023-04-30T08:24:02.611Z,33.53
2023-04-30T08:25:02.619Z,33.77
2023-04-30T08:26:02.593Z,33.96
2023-04-30T08:27:02.601Z,34.11
2023-04-30T08:28:02.572Z,34.21
2023-04-30T08:29:02.591Z,34.66
2023-04-30T08:30:02.559Z,34.81
2023-04-30T08:31:02.536Z,33.89
2023-04-30T08:32:02.562Z,33.64
2023-04-30T08:33:03.502Z,33.87
2023-04-30T08:34:02.524Z,34.21
2023-04-30T08:35:02.507Z,34.14
2023-04-30T08:36:02.480Z,34.08
2023-04-30T08:37:02.493Z,34.10
2023-04-30T08:38:02.552Z,34.30
2023-04-30T08:39:02.464Z,34.30
2023-04-30T08:40:02.454Z,34.29
2023-04-30T08:41:02.451Z,34.45
2023-04-30T08:42:02.444Z,34.92
2023-04-30T08:43:02.552Z,35.10
2023-04-30T08:44:02.425Z,35.48
2023-04-30T08:45:02.440Z,35.56
2023-04-30T08:46:02.435Z,35.60
2023-04-30T08:47:02.385Z,36.16
2023-04-30T08:48:02.412Z,36.45
2023-04-30T08:49:02.375Z,35.45
2023-04-30T08:50:02.340Z,35.53
2023-04-30T08:51:02.322Z,36.40
2023-04-30T08:52:02.381Z,36.81
2023-04-30T08:53:02.326Z,36.96
2023-04-30T08:54:02.309Z,36.92
2023-04-30T08:55:02.288Z,37.06
2023-04-30T08:56:02.273Z,37.07
2023-04-30T08:57:02.293Z,36.74
2023-04-30T08:58:02.273Z,35.83
2023-04-30T08:59:02.240Z,35.63
2023-04-30T09:00:02.260Z,35.74
2023-04-30T09:01:02.235Z,36.02
2023-04-30T09:02:02.429Z,36.52
2023-04-30T09:03:02.297Z,36.61
2023-04-30T09:04:02.302Z,36.49
2023-04-30T09:05:02.188Z,36.43
2023-04-30T09:06:02.191Z,36.49
2023-04-30T09:07:04.427Z,36.54
2023-04-30T09:08:04.154Z,36.47
2023-04-30T09:09:02.140Z,36.28
2023-04-30T09:10:02.131Z,36.01
2023-04-30T09:11:02.133Z,35.93
2023-04-30T09:12:02.112Z,36.36
2023-04-30T09:13:02.136Z,36.59
2023-04-30T09:14:02.092Z,37.08
2023-04-30T09:15:02.087Z,36.91
2023-04-30T09:16:02.100Z,36.70
2023-04-30T09:17:02.062Z,36.95
2023-04-30T09:18:02.100Z,37.18
2023-04-30T09:19:02.045Z,37.11
2023-04-30T09:20:02.031Z,37.30
2023-04-30T09:21:02.047Z,37.45
2023-04-30T09:22:02.021Z,37.68
2023-04-30T09:23:02.099Z,37.94
2023-04-30T09:24:01.994Z,38.05
2023-04-30T09:25:02.002Z,38.14
2023-04-30T09:26:01.963Z,38.21
2023-04-30T09:27:01.959Z,37.94
2023-04-30T09:28:01.964Z,37.90
2023-04-30T09:29:01.959Z,37.90
2023-04-30T09:30:01.950Z,38.12
2023-04-30T09:31:01.957Z,38.42
2023-04-30T09:32:02.014Z,38.43
2023-04-30T09:33:02.023Z,38.57
2023-04-30T09:34:01.892Z,38.69
2023-04-30T09:35:01.922Z,38.58
2023-04-30T09:36:01.879Z,37.99
2023-04-30T09:37:01.872Z,37.97
2023-04-30T09:38:01.878Z,37.94
2023-04-30T09:39:01.841Z,37.96
2023-04-30T09:40:01.868Z,37.82
2023-04-30T09:41:01.898Z,37.96
2023-04-30T09:42:01.834Z,37.70
2023-04-30T09:43:01.806Z,37.82
2023-04-30T09:44:01.828Z,38.09
2023-04-30T09:45:02.031Z,38.43
2023-04-30T09:46:01.805Z,38.68
2023-04-30T09:47:01.800Z,38.79
2023-04-30T09:48:15.806Z,38.89
2023-04-30T09:49:02.777Z,39.17
2023-04-30T09:50:01.744Z,39.06
2023-04-30T09:51:01.717Z,39.17
2023-04-30T09:52:01.756Z,39.17
2023-04-30T09:53:01.699Z,39.15
2023-04-30T09:54:01.696Z,39.36
2023-04-30T09:55:01.692Z,39.71
2023-04-30T09:56:01.674Z,39.77
2023-04-30T09:57:02.186Z,39.43
2023-04-30T09:58:01.659Z,38.92
2023-04-30T09:59:02.512Z,38.61
2023-04-30T10:00:01.675Z,38.14
2023-04-30T10:01:01.881Z,37.42
2023-04-30T10:02:01.663Z,37.20
2023-04-30T10:03:01.672Z,37.40
2023-04-30T10:04:01.761Z,37.33
2023-04-30T10:05:01.586Z,37.40
2023-04-30T10:06:01.619Z,37.39
2023-04-30T10:07:01.587Z,37.60
2023-04-30T10:08:01.582Z,37.70
2023-04-30T10:09:01.640Z,37.75
2023-04-30T10:10:01.539Z,37.65
2023-04-30T10:11:01.547Z,37.71
2023-04-30T10:12:01.526Z,38.20
2023-04-30T10:13:01.554Z,38.64
2023-04-30T10:14:01.499Z,39.07
2023-04-30T10:15:01.495Z,39.26
2023-04-30T10:16:01.499Z,39.31
2023-04-30T10:17:01.507Z,39.40
2023-04-30T10:18:01.516Z,39.78
2023-04-30T10:19:01.465Z,40.05
2023-04-30T10:20:01.468Z,40.28
2023-04-30T10:21:01.441Z,40.14
2023-04-30T10:22:01.420Z,39.96
2023-04-30T10:23:01.414Z,39.83
2023-04-30T10:24:01.426Z,39.87
2023-04-30T10:25:01.392Z,39.56
2023-04-30T10:26:01.394Z,39.19
2023-04-30T10:27:01.372Z,39.14
2023-04-30T10:28:03.973Z,38.86
2023-04-30T10:29:01.413Z,38.83
2023-04-30T10:30:01.410Z,39.26
2023-04-30T10:31:01.342Z,39.51
2023-04-30T10:32:01.400Z,39.30
2023-04-30T10:33:02.008Z,38.69
2023-04-30T10:34:01.318Z,38.77
2023-04-30T10:35:01.345Z,38.95
2023-04-30T10:36:01.316Z,38.92
2023-04-30T10:37:01.296Z,38.83
2023-04-30T10:38:01.270Z,38.58
2023-04-30T10:39:01.285Z,38.50
2023-04-30T10:40:01.254Z,38.43
2023-04-30T10:41:01.274Z,38.46
2023-04-30T10:42:01.226Z,38.61
2023-04-30T10:43:01.223Z,38.34
2023-04-30T10:44:02.106Z,38.14
2023-04-30T10:45:01.252Z,38.27
2023-04-30T10:46:01.300Z,38.26
2023-04-30T10:47:01.199Z,37.86
2023-04-30T10:48:01.257Z,37.20
2023-04-30T10:49:01.183Z,36.84
2023-04-30T10:50:01.151Z,36.58
2023-04-30T10:51:01.183Z,36.62
2023-04-30T10:52:01.158Z,36.51
2023-04-30T10:53:01.129Z,36.47
2023-04-30T10:54:01.149Z,37.01
2023-04-30T10:55:01.108Z,37.23
2023-04-30T10:56:01.109Z,37.02
2023-04-30T10:57:01.085Z,36.99
2023-04-30T10:58:01.109Z,36.99
2023-04-30T10:59:01.095Z,36.93
2023-04-30T11:00:01.119Z,36.28
2023-04-30T11:01:01.140Z,35.79
2023-04-30T11:02:01.253Z,35.71
2023-04-30T11:03:01.058Z,36.01
2023-04-30T11:04:01.191Z,36.25
2023-04-30T11:05:01.055Z,36.35
2023-04-30T11:06:01.056Z,36.58
2023-04-30T11:07:00.996Z,36.61
2023-04-30T11:08:00.987Z,36.59
2023-04-30T11:09:01.012Z,36.42
2023-04-30T11:10:00.969Z,36.36
2023-04-30T11:11:00.953Z,36.09
2023-04-30T11:12:00.955Z,35.55
2023-04-30T11:13:01.737Z,35.55
2023-04-30T11:14:01.030Z,35.44
2023-04-30T11:15:00.938Z,35.31
2023-04-30T11:16:00.932Z,35.19
2023-04-30T11:17:00.897Z,35.29
2023-04-30T11:18:01.048Z,35.31
2023-04-30T11:19:00.920Z,35.19
2023-04-30T11:20:00.874Z,35.19
2023-04-30T11:21:00.890Z,35.10
2023-04-30T11:22:00.857Z,34.81
2023-04-30T11:23:00.856Z,34.21
2023-04-30T11:24:00.879Z,33.84
2023-04-30T11:25:00.826Z,33.20
2023-04-30T11:26:00.818Z,32.46
2023-04-30T11:27:00.823Z,32.22
2023-04-30T11:28:00.800Z,32.33
2023-04-30T11:29:00.842Z,32.27
2023-04-30T11:30:00.837Z,32.15
2023-04-30T11:31:00.812Z,31.99
2023-04-30T11:32:00.821Z,32.03
2023-04-30T11:33:00.861Z,32.04
2023-04-30T11:34:00.764Z,32.03
2023-04-30T11:35:00.733Z,31.80
2023-04-30T11:36:00.734Z,31.43
2023-04-30T11:37:00.882Z,30.85
2023-04-30T11:38:00.701Z,30.77
2023-04-30T11:39:00.848Z,30.51
2023-04-30T11:40:00.712Z,30.53
2023-04-30T11:41:00.691Z,30.21
2023-04-30T11:42:00.730Z,30.13
2023-04-30T11:43:00.668Z,29.63
2023-04-30T11:44:00.661Z,29.45
2023-04-30T11:45:00.655Z,29.10
2023-04-30T11:46:00.632Z,28.60
2023-04-30T11:47:00.717Z,28.59
2023-04-30T11:48:00.682Z,28.51
2023-04-30T11:49:00.609Z,28.54
2023-04-30T11:50:00.616Z,28.51
2023-04-30T11:51:00.578Z,28.62
2023-04-30T11:52:00.585Z,28.67
2023-04-30T11:53:00.587Z,27.83
2023-04-30T11:54:00.586Z,27.44
2023-04-30T11:55:00.563Z,27.55
2023-04-30T11:56:10.059Z,27.58
2023-04-30T11:57:00.524Z,27.11
2023-04-30T11:58:00.519Z,26.55
2023-04-30T11:59:00.511Z,26.75
2023-04-30T12:00:00.514Z,26.93
2023-04-30T12:01:00.487Z,27.17
2023-04-30T12:02:00.494Z,27.47
2023-04-30T12:03:00.783Z,27.74
2023-04-30T12:04:00.641Z,27.93
2023-04-30T12:05:00.477Z,27.80
2023-04-30T12:06:00.544Z,27.75
2023-04-30T12:07:00.486Z,26.81
2023-04-30T12:08:00.427Z,26.09
2023-04-30T12:09:00.634Z,26.34
2023-04-30T12:10:00.475Z,26.47
2023-04-30T12:11:00.436Z,26.83
2023-04-30T12:12:00.386Z,26.74
2023-04-30T12:13:00.381Z,26.56
2023-04-30T12:14:00.365Z,26.38
2023-04-30T12:15:00.372Z,26.43
2023-04-30T12:16:00.353Z,26.28
2023-04-30T12:17:00.436Z,26.21
2023-04-30T12:18:00.454Z,26.26
2023-04-30T12:19:00.326Z,26.15
2023-04-30T12:20:00.333Z,26.31
2023-04-30T12:21:00.300Z,26.26
2023-04-30T12:22:00.300Z,26.19
2023-04-30T12:23:00.299Z,26.10
2023-04-30T12:24:02.755Z,25.93
2023-04-30T12:25:00.304Z,25.46
2023-04-30T12:26:00.251Z,24.61
2023-04-30T12:27:01.081Z,24.24
2023-04-30T12:28:00.233Z,22.43
2023-04-30T12:29:00.528Z,21.46
2023-04-30T12:30:00.245Z,21.22
2023-04-30T12:31:00.206Z,21.25
2023-04-30T12:32:00.276Z,21.62
2023-04-30T12:33:05.183Z,21.64
2023-04-30T12:34:00.182Z,21.29
2023-04-30T12:35:00.344Z,20.47
2023-04-30T12:36:00.192Z,20.16
2023-04-30T12:37:00.172Z,20.70
2023-04-30T12:38:00.145Z,21.43
2023-04-30T12:39:00.142Z,21.85
2023-04-30T12:40:00.144Z,21.88
2023-04-30T12:41:01.351Z,22.10
2023-04-30T12:42:00.156Z,22.15
2023-04-30T12:43:00.113Z,22.23
2023-04-30T12:44:00.142Z,22.25
2023-04-30T12:45:00.075Z,22.29
2023-04-30T12:46:00.163Z,22.14
2023-04-30T12:47:00.052Z,20.81
2023-04-30T12:48:00.088Z,19.73
2023-04-30T12:49:00.046Z,19.09
2023-04-30T12:50:00.034Z,19.41
2023-04-30T12:51:00.100Z,19.18
2023-04-30T12:52:00.562Z,18.99
2023-04-30T12:52:59.989Z,19.07
2023-04-30T12:53:59.980Z,18.93
2023-04-30T12:54:59.980Z,18.44
2023-04-30T12:55:59.970Z,18.40
2023-04-30T12:57:00.005Z,18.43
2023-04-30T12:57:59.933Z,18.65
2023-04-30T12:58:59.921Z,19.02
2023-04-30T13:00:00.013Z,19.47
2023-04-30T13:00:59.951Z,19.88
2023-04-30T13:01:59.985Z,20.16
2023-04-30T13:02:59.951Z,20.59
2023-04-30T13:04:00.013Z,20.77